createdAt,value
2018-01-04T00:00:27.647Z,4.10
2018-01-04T00:02:55.572Z,4.73
2018-01-04T00:05:23.630Z,3.90
2018-01-04T00:07:51.581Z,4.10
2018-01-04T00:10:20.243Z,4.30
2018-01-04T00:12:48.308Z,4.20
2018-01-04T00:15:16.244Z,6.20
2018-01-04T00:17:44.188Z,3.87
2018-01-04T00:20:12.998Z,4.23
2018-01-04T00:22:40.915Z,4.57
2018-01-04T00:25:08.861Z,4.60
2018-01-04T00:27:36.915Z,4.80
2018-01-04T00:30:04.830Z,5.30
2018-01-04T00:32:32.785Z,5.37
2018-01-04T00:35:00.976Z,5.70
2018-01-04T00:37:28.916Z,4.60
2018-01-04T00:39:56.836Z,4.13
2018-01-04T00:42:25.641Z,4.33
2018-01-04T00:44:53.574Z,5.20
2018-01-04T00:47:21.595Z,5.07
2018-01-04T00:49:49.648Z,4.03
2018-01-04T00:52:18.321Z,4.70
2018-01-04T00:54:46.993Z,4.80
2018-01-04T00:57:15.056Z,5.00
2018-01-04T00:59:42.989Z,4.40
2018-01-04T01:02:10.915Z,4.20
2018-01-04T01:04:39.729Z,4.20
2018-01-04T01:07:07.648Z,4.40
2018-01-04T01:09:35.577Z,4.27
2018-01-04T01:12:03.661Z,4.83
2018-01-04T01:14:31.584Z,4.13
2018-01-04T01:17:00.261Z,4.03
2018-01-04T01:19:28.329Z,4.53
2018-01-04T01:21:56.263Z,3.83
2018-01-04T01:24:24.201Z,4.53
2018-01-04T01:26:53.004Z,3.97
2018-01-04T01:29:20.932Z,4.70
2018-01-04T01:31:48.864Z,3.70
2018-01-04T01:34:16.922Z,4.13
2018-01-04T01:36:44.985Z,4.37
2018-01-04T01:39:12.917Z,3.73
2018-01-04T01:41:41.002Z,3.73
2018-01-04T01:44:09.677Z,4.10
2018-01-04T01:46:37.594Z,4.40
2018-01-04T01:49:16.304Z,3.90
2018-01-04T01:51:44.230Z,3.80
2018-01-04T01:54:12.176Z,3.57
2018-01-04T01:56:40.241Z,4.43
2018-01-04T01:59:08.177Z,4.17
2018-01-04T02:01:36.835Z,3.63
2018-01-04T02:04:04.905Z,3.80
2018-01-04T02:06:32.833Z,4.30
2018-01-04T02:09:00.751Z,4.27
2018-01-04T02:11:28.794Z,3.33
2018-01-04T02:13:56.728Z,3.93
2018-01-04T02:16:24.653Z,4.57
2018-01-04T02:19:04.237Z,4.10
2018-01-04T02:21:43.701Z,3.60
2018-01-04T02:24:23.167Z,4.40
2018-01-04T02:27:02.641Z,4.23
2018-01-04T02:29:43.100Z,4.20
2018-01-04T02:32:23.334Z,3.97
2018-01-04T02:35:02.980Z,3.70
2018-01-04T02:37:42.391Z,5.13
2018-01-04T02:40:22.057Z,4.90
2018-01-04T02:43:01.514Z,4.00
2018-01-04T02:45:53.703Z,3.67
2018-01-04T02:48:21.633Z,4.07
2018-01-04T02:50:50.296Z,4.60
2018-01-04T02:53:18.353Z,3.83
2018-01-04T02:55:46.285Z,3.70
2018-01-04T02:58:14.225Z,4.57
2018-01-04T03:00:42.357Z,4.07
2018-01-04T03:03:10.359Z,3.87
2018-01-04T03:05:38.287Z,4.70
2018-01-04T03:08:06.350Z,4.90
2018-01-04T03:10:34.276Z,5.10
2018-01-04T03:13:02.193Z,5.63
2018-01-04T03:15:30.248Z,4.80
2018-01-04T03:17:58.943Z,5.33
2018-01-04T03:20:26.873Z,5.50
2018-01-04T03:23:00.484Z,5.27
2018-01-04T03:25:34.017Z,6.43
2018-01-04T03:28:07.781Z,6.47
2018-01-04T03:30:41.357Z,4.90
2018-01-04T03:33:14.981Z,5.63
2018-01-04T03:35:58.388Z,5.27
2018-01-04T03:38:32.004Z,5.87
2018-01-04T03:41:05.501Z,5.70
2018-01-04T03:43:39.121Z,6.00
2018-01-04T03:46:12.637Z,5.73
2018-01-04T03:48:47.085Z,5.10
2018-01-04T03:51:20.591Z,5.77
2018-01-04T03:54:03.336Z,6.47
2018-01-04T03:56:36.963Z,7.00
2018-01-04T03:59:10.921Z,7.63
2018-01-04T04:01:44.414Z,6.07
2018-01-04T04:04:19.033Z,4.73
2018-01-04T04:06:53.526Z,6.37
2018-01-04T04:09:21.472Z,6.30
2018-01-04T04:11:49.405Z,5.93
2018-01-04T04:14:17.328Z,6.50
2018-01-04T04:16:45.375Z,5.63
2018-01-04T04:19:13.325Z,5.63
2018-01-04T04:21:41.261Z,5.80
2018-01-04T04:24:09.311Z,5.13
2018-01-04T04:26:37.235Z,6.30
2018-01-04T04:29:05.147Z,6.50
2018-01-04T04:31:33.205Z,6.10
2018-01-04T04:34:01.170Z,6.47
2018-01-04T04:36:29.096Z,6.47
2018-01-04T04:38:57.879Z,6.43
2018-01-04T04:41:26.550Z,6.20
2018-01-04T04:43:54.489Z,6.23
2018-01-04T04:46:22.548Z,5.63
2018-01-04T04:48:50.472Z,5.70
2018-01-04T04:51:18.401Z,6.10
2018-01-04T04:53:46.455Z,6.50
2018-01-04T04:56:14.381Z,6.80
2018-01-04T04:58:42.304Z,6.70
2018-01-04T05:01:10.364Z,6.53
2018-01-04T05:03:38.284Z,7.30
2018-01-04T05:06:06.357Z,6.10
2018-01-04T05:08:34.410Z,6.07
2018-01-04T05:11:02.345Z,6.40
2018-01-04T05:13:30.281Z,6.97
2018-01-04T05:15:59.059Z,8.60
2018-01-04T05:18:26.984Z,7.13
2018-01-04T05:20:54.925Z,6.27
2018-01-04T05:23:23.706Z,7.67
2018-01-04T05:25:52.368Z,6.90
2018-01-04T05:28:20.313Z,7.40
2018-01-04T05:30:48.360Z,7.00
2018-01-04T05:33:16.293Z,7.73
2018-01-04T05:35:44.229Z,6.90
2018-01-04T05:38:12.301Z,6.40
2018-01-04T05:40:40.235Z,7.00
2018-01-04T05:43:08.174Z,6.80
2018-01-04T05:45:36.234Z,6.43
2018-01-04T05:48:04.148Z,7.07
2018-01-04T05:50:32.085Z,8.63
2018-01-04T05:53:00.144Z,7.90
2018-01-04T05:55:28.082Z,7.30
2018-01-04T05:57:56.016Z,7.30
2018-01-04T06:00:24.816Z,8.90
2018-01-04T06:02:53.478Z,6.93
2018-01-04T06:05:21.406Z,7.70
2018-01-04T06:07:49.613Z,7.63
2018-01-04T06:10:17.548Z,7.60
2018-01-04T06:12:45.493Z,8.57
2018-01-04T06:15:13.542Z,8.00
2018-01-04T06:17:42.208Z,7.30
2018-01-04T06:20:10.135Z,6.70
2018-01-04T06:22:38.184Z,7.77
2018-01-04T06:25:06.869Z,7.13
2018-01-04T06:27:35.549Z,7.60
2018-01-04T06:30:04.370Z,8.03
2018-01-04T06:32:32.318Z,6.97
2018-01-04T06:35:00.991Z,7.90
2018-01-04T06:37:29.806Z,8.73
2018-01-04T06:39:57.719Z,7.70
2018-01-04T06:42:26.604Z,6.90
2018-01-04T06:44:54.666Z,8.60
2018-01-04T06:47:22.585Z,9.07
2018-01-04T06:49:51.254Z,9.23
2018-01-04T06:52:19.336Z,11.10
2018-01-04T06:54:47.275Z,8.53
2018-01-04T06:57:15.196Z,7.67
2018-01-04T06:59:43.993Z,8.57
2018-01-04T07:02:12.660Z,7.87
2018-01-04T07:04:41.337Z,9.10
2018-01-04T07:07:09.413Z,9.23
2018-01-04T07:09:37.476Z,8.13
2018-01-04T07:12:05.434Z,8.23
2018-01-04T07:14:33.481Z,8.40
2018-01-04T07:17:01.524Z,7.50
2018-01-04T07:19:30.197Z,9.13
2018-01-04T07:21:58.992Z,9.83
2018-01-04T07:24:27.669Z,8.10
2018-01-04T07:26:56.349Z,8.40
2018-01-04T07:29:25.165Z,9.10
2018-01-04T07:31:53.844Z,8.00
2018-01-04T07:34:22.509Z,7.47
2018-01-04T07:36:50.577Z,8.90
2018-01-04T07:39:18.492Z,9.07
2018-01-04T07:41:46.465Z,9.37
2018-01-04T07:44:14.521Z,7.20
2018-01-04T07:46:43.204Z,8.00
2018-01-04T07:49:11.880Z,8.53
2018-01-04T07:51:40.680Z,8.80
2018-01-04T07:54:09.373Z,8.83
2018-01-04T07:56:38.061Z,8.93
2018-01-04T07:59:06.874Z,9.60
2018-01-04T08:01:34.805Z,7.80
2018-01-04T08:04:03.473Z,9.03
2018-01-04T08:06:31.516Z,8.70
2018-01-04T08:08:59.440Z,9.03
2018-01-04T08:11:28.258Z,8.73
2018-01-04T08:13:56.303Z,8.97
2018-01-04T08:16:24.981Z,9.90
2018-01-04T08:18:53.664Z,7.80
2018-01-04T08:21:21.725Z,8.53
2018-01-04T08:23:49.664Z,10.47
2018-01-04T08:26:17.607Z,9.03
2018-01-04T08:28:45.658Z,8.20
2018-01-04T08:31:14.319Z,8.47
2018-01-04T08:33:42.260Z,8.83
2018-01-04T08:36:10.361Z,9.10
2018-01-04T08:38:38.283Z,8.50
2018-01-04T08:41:06.206Z,7.87
2018-01-04T08:43:34.256Z,7.50
2018-01-04T08:46:02.220Z,8.20
2018-01-04T08:48:30.148Z,9.23
2018-01-04T08:50:58.936Z,8.20
2018-01-04T08:53:27.597Z,8.30
2018-01-04T08:55:55.526Z,8.53
2018-01-04T08:58:23.573Z,9.10
2018-01-04T09:00:52.249Z,8.63
2018-01-04T09:03:20.920Z,9.37
2018-01-04T09:05:48.994Z,8.57
2018-01-04T09:08:16.916Z,9.30
2018-01-04T09:10:44.853Z,9.60
2018-01-04T09:13:13.774Z,9.90
2018-01-04T09:15:41.717Z,9.17
2018-01-04T09:18:10.407Z,9.63
2018-01-04T09:20:39.193Z,9.13
2018-01-04T09:23:07.881Z,9.43
2018-01-04T09:25:36.550Z,9.97
2018-01-04T09:28:04.626Z,9.17
2018-01-04T09:30:33.301Z,10.83
2018-01-04T09:33:01.421Z,9.57
2018-01-04T09:35:29.501Z,11.20
2018-01-04T09:37:57.424Z,9.30
2018-01-04T09:40:25.355Z,8.47
2018-01-04T09:42:54.305Z,9.40
2018-01-04T09:45:22.982Z,9.77
2018-01-04T09:47:51.661Z,10.43
2018-01-04T09:50:19.721Z,9.27
2018-01-04T09:52:47.654Z,10.20
2018-01-04T09:55:16.752Z,8.87
2018-01-04T09:57:44.799Z,9.40
2018-01-04T10:00:13.476Z,9.40
2018-01-04T10:02:42.166Z,9.43
2018-01-04T10:05:10.976Z,11.53
2018-01-04T10:07:38.904Z,9.17
2018-01-04T10:10:06.857Z,10.03
2018-01-04T10:12:34.918Z,9.97
2018-01-04T10:15:02.981Z,9.67
2018-01-04T10:17:30.909Z,9.00
2018-01-04T10:19:59.716Z,8.70
2018-01-04T10:22:27.666Z,9.93
2018-01-04T10:24:56.342Z,9.43
2018-01-04T10:27:24.404Z,7.90
2018-01-04T10:29:52.336Z,8.20
2018-01-04T10:32:20.252Z,8.33
2018-01-04T10:34:48.314Z,9.47
2018-01-04T10:37:16.257Z,8.43
2018-01-04T10:39:44.179Z,8.07
2018-01-04T10:42:12.960Z,8.80
2018-01-04T10:44:41.637Z,7.97
2018-01-04T10:47:09.564Z,9.00
2018-01-04T10:49:37.608Z,8.40
2018-01-04T10:52:06.296Z,8.87
2018-01-04T10:54:34.230Z,8.50
2018-01-04T10:57:02.287Z,8.57
2018-01-04T10:59:30.235Z,8.60
2018-01-04T11:01:58.162Z,10.00
2018-01-04T11:04:26.962Z,8.77
2018-01-04T11:06:55.662Z,8.07
2018-01-04T11:09:23.594Z,8.53
2018-01-04T11:11:51.644Z,8.13
2018-01-04T11:14:19.590Z,8.87
2018-01-04T11:16:47.776Z,8.87
2018-01-04T11:19:15.835Z,8.60
2018-01-04T11:21:43.758Z,7.83
2018-01-04T11:24:11.681Z,6.83
2018-01-04T11:26:39.728Z,8.63
2018-01-04T11:29:07.664Z,8.30
2018-01-04T11:31:35.592Z,7.47
2018-01-04T11:34:03.688Z,8.90
2018-01-04T11:36:31.623Z,7.90
2018-01-04T11:38:59.561Z,7.83
2018-01-04T11:41:28.354Z,7.70
2018-01-04T11:43:57.012Z,7.57
2018-01-04T11:46:24.946Z,7.53
2018-01-04T11:48:53.020Z,8.97
2018-01-04T11:51:20.948Z,9.30
2018-01-04T11:53:49.623Z,10.60
2018-01-04T11:56:17.702Z,18.60
2018-01-04T11:58:46.386Z,10.37
2018-01-04T12:01:15.219Z,17.13
2018-01-04T12:03:43.269Z,10.83
2018-01-04T12:06:11.945Z,8.50
2018-01-04T12:08:40.612Z,7.83
2018-01-04T12:11:08.684Z,8.33
2018-01-04T12:13:36.614Z,8.50
2018-01-04T12:16:04.674Z,7.93
2018-01-04T12:18:32.868Z,8.07
2018-01-04T12:21:00.784Z,7.70
2018-01-04T12:23:28.713Z,9.30
2018-01-04T12:25:56.777Z,7.30
2018-01-04T12:28:24.712Z,7.33
2018-01-04T12:30:53.390Z,7.80
2018-01-04T12:33:22.188Z,8.70
2018-01-04T12:35:50.848Z,8.03
2018-01-04T12:38:18.774Z,8.23
2018-01-04T12:40:46.820Z,8.13
2018-01-04T12:43:15.479Z,8.17
2018-01-04T12:45:43.420Z,7.90
2018-01-04T12:48:11.481Z,7.73
2018-01-04T12:50:39.408Z,7.13
2018-01-04T12:53:08.074Z,7.50
2018-01-04T12:55:36.112Z,8.07
2018-01-04T12:58:04.052Z,8.63
2018-01-04T13:00:32.724Z,8.50
2018-01-04T13:03:01.512Z,9.70
2018-01-04T13:05:30.173Z,8.67
2018-01-04T13:07:58.117Z,7.63
2018-01-04T13:10:26.189Z,7.43
2018-01-04T13:12:54.126Z,8.70
2018-01-04T13:15:22.809Z,7.40
2018-01-04T13:17:51.596Z,8.63
2018-01-04T13:20:20.396Z,7.67
2018-01-04T13:22:49.064Z,9.17
2018-01-04T13:25:17.836Z,8.30
2018-01-04T13:27:45.769Z,8.93
2018-01-04T13:30:13.709Z,8.03
2018-01-04T13:32:41.769Z,8.43
2018-01-04T13:35:10.449Z,8.97
2018-01-04T13:37:38.389Z,9.33
2018-01-04T13:40:06.439Z,10.30
2018-01-04T13:42:34.403Z,8.97
2018-01-04T13:45:02.358Z,8.63
2018-01-04T13:47:30.409Z,8.93
2018-01-04T13:49:59.090Z,8.87
2018-01-04T13:52:27.761Z,11.00
2018-01-04T13:54:55.949Z,8.83
2018-01-04T13:57:23.879Z,8.03
2018-01-04T13:59:51.847Z,9.17
2018-01-04T14:02:19.920Z,8.50
2018-01-04T14:04:47.848Z,8.73
2018-01-04T14:07:16.521Z,8.53
2018-01-04T14:09:45.329Z,8.07
2018-01-04T14:12:14.010Z,7.00
2018-01-04T14:14:42.684Z,8.17
2018-01-04T14:17:10.745Z,8.40
2018-01-04T14:19:38.688Z,8.90
2018-01-04T14:22:06.768Z,8.67
2018-01-04T14:24:34.828Z,7.43
2018-01-04T14:27:02.748Z,8.10
2018-01-04T14:29:31.427Z,8.43
2018-01-04T14:32:00.236Z,7.63
2018-01-04T14:34:28.903Z,8.57
2018-01-04T14:36:56.834Z,8.63
2018-01-04T14:39:25.035Z,8.50
2018-01-04T14:41:53.104Z,9.70
2018-01-04T14:44:21.050Z,9.53
2018-01-04T14:46:49.113Z,9.03
2018-01-04T14:49:17.047Z,8.93
2018-01-04T14:51:45.722Z,8.60
2018-01-04T14:54:13.780Z,10.47
2018-01-04T14:56:41.721Z,8.40
2018-01-04T14:59:09.653Z,10.10
2018-01-04T15:01:38.442Z,8.70
2018-01-04T15:04:07.110Z,8.07
2018-01-04T15:06:35.064Z,8.97
2018-01-04T15:09:03.131Z,8.30
2018-01-04T15:11:31.055Z,8.20
2018-01-04T15:13:58.992Z,7.93
2018-01-04T15:16:27.048Z,7.90
2018-01-04T15:18:54.986Z,8.50
2018-01-04T15:21:22.908Z,8.43
2018-01-04T15:23:51.855Z,7.80
2018-01-04T15:26:19.789Z,8.63
2018-01-04T15:28:48.458Z,8.67
2018-01-04T15:31:17.264Z,8.70
2018-01-04T15:33:45.937Z,9.47
2018-01-04T15:36:14.604Z,9.40
2018-01-04T15:38:42.660Z,9.00
2018-01-04T15:41:10.576Z,8.83
2018-01-04T15:43:39.269Z,8.73
2018-01-04T15:46:08.057Z,8.17
2018-01-04T15:48:36.753Z,10.30
2018-01-04T15:51:04.698Z,8.83
2018-01-04T15:53:33.512Z,8.30
2018-01-04T15:56:01.440Z,8.17
2018-01-04T15:58:29.386Z,8.50
2018-01-04T16:00:57.442Z,9.27
2018-01-04T16:03:25.364Z,8.20
2018-01-04T16:05:53.287Z,9.60
2018-01-04T16:08:21.345Z,9.17
2018-01-04T16:10:49.272Z,9.80
2018-01-04T16:13:17.204Z,9.57
2018-01-04T16:15:45.281Z,10.97
2018-01-04T16:18:13.244Z,10.67
2018-01-04T16:20:41.185Z,10.13
2018-01-04T16:23:09.992Z,9.40
2018-01-04T16:25:38.060Z,10.60
2018-01-04T16:28:05.980Z,10.20
2018-01-04T16:30:34.043Z,11.17
2018-01-04T16:33:01.968Z,11.60
2018-01-04T16:35:29.896Z,11.50
2018-01-04T16:37:57.943Z,11.10
2018-01-04T16:40:25.872Z,11.37
2018-01-04T16:42:53.791Z,11.80
2018-01-04T16:45:21.851Z,11.90
2018-01-04T16:47:49.779Z,13.93
2018-01-04T16:50:18.515Z,12.50
2018-01-04T16:52:46.573Z,12.60
2018-01-04T16:55:14.532Z,12.80
2018-01-04T16:57:42.448Z,13.60
2018-01-04T17:00:10.528Z,13.33
2018-01-04T17:02:38.465Z,14.03
2018-01-04T17:05:06.410Z,14.20
2018-01-04T17:07:34.460Z,13.50
2018-01-04T17:10:03.149Z,15.60
2018-01-04T17:12:31.833Z,12.43
2018-01-04T17:15:00.648Z,13.90
2018-01-04T17:17:28.574Z,14.97
2018-01-04T17:19:56.516Z,15.47
2018-01-04T17:22:24.576Z,17.37
2018-01-04T17:24:52.508Z,17.77
2018-01-04T17:27:21.318Z,15.13
2018-01-04T17:29:49.396Z,15.00
2018-01-04T17:32:17.340Z,15.83
2018-01-04T17:34:46.025Z,15.93
2018-01-04T17:37:14.821Z,14.63
2018-01-04T17:39:43.614Z,14.73
2018-01-04T17:42:12.272Z,14.67
2018-01-04T17:44:40.341Z,15.50
2018-01-04T17:47:08.293Z,15.63
2018-01-04T17:49:36.242Z,16.00
2018-01-04T17:52:04.342Z,13.63
2018-01-04T17:54:32.318Z,15.00
2018-01-04T17:57:00.236Z,14.33
2018-01-04T17:59:28.292Z,14.83
2018-01-04T18:01:56.974Z,14.93
2018-01-04T18:04:25.635Z,13.80
2018-01-04T18:06:53.702Z,14.40
2018-01-04T18:09:21.637Z,15.17
2018-01-04T18:11:49.825Z,13.67
2018-01-04T18:14:17.892Z,14.87
2018-01-04T18:16:45.828Z,16.30
2018-01-04T18:19:14.510Z,17.30
2018-01-04T18:21:43.373Z,14.73
2018-01-04T18:24:11.305Z,16.57
2018-01-04T18:26:39.238Z,15.93
2018-01-04T18:29:08.180Z,15.37
2018-01-04T18:31:36.138Z,16.03
2018-01-04T18:34:04.214Z,16.90
2018-01-04T18:36:32.266Z,15.00
2018-01-04T18:39:00.192Z,15.27
2018-01-04T18:41:28.119Z,15.33
2018-01-04T18:43:56.322Z,15.83
2018-01-04T18:46:24.253Z,13.70
2018-01-04T18:48:52.198Z,13.73
2018-01-04T18:51:21.023Z,13.73
2018-01-04T18:53:48.958Z,16.53
2018-01-04T18:56:17.624Z,15.20
2018-01-04T18:58:45.674Z,18.37
2018-01-04T19:01:13.618Z,15.70
2018-01-04T19:03:41.548Z,21.50
2018-01-04T19:06:09.592Z,14.13
2018-01-04T19:08:37.520Z,13.10
2018-01-04T19:11:05.456Z,11.70
2018-01-04T19:13:33.500Z,10.63
2018-01-04T19:16:01.426Z,10.57
2018-01-04T19:18:30.097Z,10.73
2018-01-04T19:20:58.876Z,11.27
2018-01-04T19:23:26.815Z,11.57
2018-01-04T19:25:54.756Z,11.37
2018-01-04T19:28:22.829Z,10.90
2018-01-04T19:30:50.910Z,10.47
2018-01-04T19:33:18.876Z,11.40
2018-01-04T19:35:46.946Z,12.97
2018-01-04T19:38:14.869Z,12.70
2018-01-04T19:40:42.800Z,12.97
2018-01-04T19:43:10.863Z,12.13
2018-01-04T19:45:38.819Z,10.83
2018-01-04T19:48:06.748Z,9.90
2018-01-04T19:50:34.797Z,9.50
2018-01-04T19:53:02.739Z,10.23
2018-01-04T19:55:30.673Z,10.57
2018-01-04T19:57:59.481Z,10.97
2018-01-04T20:00:28.175Z,11.40
2018-01-04T20:02:56.853Z,10.67
2018-01-04T20:05:25.642Z,12.80
2018-01-04T20:07:54.478Z,10.50
2018-01-04T20:10:22.556Z,9.97
2018-01-04T20:12:50.616Z,10.13
2018-01-04T20:15:18.664Z,10.40
2018-01-04T20:17:46.580Z,9.37
2018-01-04T20:20:14.637Z,10.80
2018-01-04T20:22:42.585Z,11.87
2018-01-04T20:25:10.511Z,10.93
2018-01-04T20:27:38.568Z,10.90
2018-01-04T20:30:06.508Z,10.47
2018-01-04T20:32:34.585Z,11.40
2018-01-04T20:35:02.647Z,12.70
2018-01-04T20:37:30.578Z,13.77
2018-01-04T20:39:59.288Z,10.70
2018-01-04T20:42:27.327Z,10.90
2018-01-04T20:44:55.256Z,11.30
2018-01-04T20:47:23.202Z,11.10
2018-01-04T20:49:51.236Z,13.30
2018-01-04T20:52:19.161Z,13.47
2018-01-04T20:54:47.097Z,13.93
2018-01-04T20:57:15.900Z,15.13
2018-01-04T20:59:43.824Z,13.20
2018-01-04T21:02:12.475Z,12.80
2018-01-04T21:04:40.528Z,12.03
2018-01-04T21:07:08.457Z,12.67
2018-01-04T21:09:36.372Z,12.83
2018-01-04T21:12:04.418Z,11.10
2018-01-04T21:14:33.084Z,11.70
2018-01-04T21:17:01.020Z,13.00
2018-01-04T21:19:29.084Z,13.10
2018-01-04T21:21:57.022Z,13.13
2018-01-04T21:24:25.696Z,12.67
2018-01-04T21:26:53.754Z,11.60
2018-01-04T21:29:21.684Z,12.40
2018-01-04T21:31:49.630Z,13.13
2018-01-04T21:34:18.570Z,13.43
2018-01-04T21:36:46.500Z,13.93
2018-01-04T21:39:14.434Z,12.23
2018-01-04T21:41:42.505Z,13.27
2018-01-04T21:44:10.438Z,12.03
2018-01-04T21:46:38.369Z,12.10
2018-01-04T21:49:07.160Z,13.17
2018-01-04T21:51:35.843Z,13.03
2018-01-04T21:54:04.497Z,13.00
2018-01-04T21:56:32.539Z,13.77
2018-01-04T21:59:00.465Z,14.60
2018-01-04T22:01:29.142Z,13.00
2018-01-04T22:03:57.190Z,12.80
2018-01-04T22:06:25.216Z,14.43
2018-01-04T22:08:53.150Z,11.07
2018-01-04T22:11:21.217Z,11.03
2018-01-04T22:13:49.188Z,11.80
2018-01-04T22:16:17.113Z,12.00
2018-01-04T22:18:45.177Z,12.63
2018-01-04T22:21:13.092Z,13.20
2018-01-04T22:23:41.016Z,13.20
2018-01-04T22:26:09.060Z,13.53
2018-01-04T22:28:37.740Z,12.77
2018-01-04T22:31:05.663Z,13.00
2018-01-04T22:33:33.984Z,12.60
2018-01-04T22:36:02.049Z,12.73
2018-01-04T22:38:29.989Z,13.97
2018-01-04T22:40:58.065Z,13.10
2018-01-04T22:43:26.121Z,12.77
2018-01-04T22:45:54.069Z,11.27
2018-01-04T22:48:22.877Z,11.77
2018-01-04T22:50:50.812Z,9.93
2018-01-04T22:53:19.728Z,10.77
2018-01-04T22:55:47.776Z,10.00
2018-01-04T22:58:16.467Z,10.73
2018-01-04T23:00:49.213Z,11.60
2018-01-04T23:03:17.145Z,11.37
2018-01-04T23:05:45.081Z,9.90
2018-01-04T23:08:13.890Z,10.80
2018-01-04T23:10:42.547Z,10.37
2018-01-04T23:13:10.486Z,10.50
2018-01-04T23:15:38.528Z,8.77
2018-01-04T23:18:06.465Z,10.20
2018-01-04T23:20:34.397Z,10.37
2018-01-04T23:23:02.443Z,9.70
2018-01-04T23:25:30.402Z,8.97
2018-01-04T23:27:59.081Z,9.70
2018-01-04T23:30:28.142Z,10.83
2018-01-04T23:32:56.065Z,9.40
2018-01-04T23:35:23.984Z,9.33
2018-01-04T23:37:52.178Z,9.90
2018-01-04T23:40:20.104Z,9.23
2018-01-04T23:42:48.020Z,10.10
2018-01-04T23:45:16.217Z,9.00
2018-01-04T23:47:45.135Z,10.47
2018-01-04T23:50:13.210Z,9.40
2018-01-04T23:52:41.276Z,9.00
2018-01-04T23:55:09.193Z,9.67
2018-01-04T23:57:37.113Z,9.37
